createdAt,value
2018-06-24T00:01:11.587Z,85.60
2018-06-24T00:03:40.145Z,85.80
2018-06-24T00:06:08.738Z,85.60
2018-06-24T00:08:37.287Z,85.60
2018-06-24T00:11:05.921Z,85.70
2018-06-24T00:13:34.451Z,85.90
2018-06-24T00:16:03.025Z,86.60
2018-06-24T00:18:32.420Z,86.20
2018-06-24T00:21:01.071Z,86.70
2018-06-24T00:23:29.690Z,86.50
2018-06-24T00:25:58.391Z,87.00
2018-06-24T00:28:27.061Z,87.20
2018-06-24T00:30:55.665Z,86.60
2018-06-24T00:33:24.290Z,86.60
2018-06-24T00:35:52.804Z,86.30
2018-06-24T00:38:21.327Z,87.00
2018-06-24T00:40:50.850Z,87.10
2018-06-24T00:45:48.615Z,87.50
2018-06-24T00:48:17.150Z,87.80
2018-06-24T00:50:45.676Z,87.90
2018-06-24T00:53:14.184Z,87.90
2018-06-24T00:55:42.683Z,88.10
2018-06-24T00:58:11.236Z,88.00
2018-06-24T01:00:39.810Z,88.10
2018-06-24T01:03:08.314Z,88.10
2018-06-24T01:05:36.917Z,88.30
2018-06-24T01:08:05.400Z,88.40
2018-06-24T01:10:33.918Z,88.80
2018-06-24T01:13:02.468Z,88.70
2018-06-24T01:15:31.059Z,88.40
2018-06-24T01:17:59.535Z,89.20
2018-06-24T01:20:28.100Z,89.40
2018-06-24T01:22:56.584Z,89.80
2018-06-24T01:25:25.111Z,90.40
2018-06-24T01:27:53.617Z,90.70
2018-06-24T01:30:22.219Z,90.90
2018-06-24T01:32:51.620Z,91.60
2018-06-24T01:35:20.092Z,91.60
2018-06-24T01:37:48.660Z,91.70
2018-06-24T01:40:17.768Z,92.00
2018-06-24T01:42:46.238Z,91.90
2018-06-24T01:45:14.731Z,91.80
2018-06-24T01:47:43.304Z,91.70
2018-06-24T01:50:12.798Z,92.00
2018-06-24T01:52:41.306Z,92.20
2018-06-24T01:55:09.788Z,92.20
2018-06-24T01:57:38.265Z,92.10
2018-06-24T02:00:07.500Z,92.50
2018-06-24T02:02:36.246Z,92.30
2018-06-24T02:05:04.896Z,91.90
2018-06-24T02:07:33.408Z,92.40
2018-06-24T02:10:01.985Z,92.10
2018-06-24T02:12:30.653Z,92.50
2018-06-24T02:14:59.155Z,92.70
2018-06-24T02:17:27.695Z,92.60
2018-06-24T02:19:56.378Z,93.00
2018-06-24T02:22:24.934Z,93.00
2018-06-24T02:24:53.412Z,93.00
2018-06-24T02:27:21.959Z,93.10
2018-06-24T02:29:50.437Z,93.30
2018-06-24T02:32:18.943Z,93.40
2018-06-24T02:34:47.495Z,93.50
2018-06-24T02:37:16.002Z,93.40
2018-06-24T02:39:44.490Z,93.50
2018-06-24T02:42:13.001Z,93.20
2018-06-24T02:44:41.500Z,93.30
2018-06-24T02:47:10.252Z,93.30
2018-06-24T02:49:38.772Z,93.40
2018-06-24T02:52:07.394Z,93.70
2018-06-24T02:54:35.890Z,93.80
2018-06-24T02:57:04.377Z,93.60
2018-06-24T02:59:32.890Z,93.70
2018-06-24T03:02:01.408Z,93.90
2018-06-24T03:04:29.899Z,93.80
2018-06-24T03:06:58.396Z,93.90
2018-06-24T03:09:27.811Z,93.90
2018-06-24T03:11:56.341Z,93.70
2018-06-24T03:14:24.884Z,93.50
2018-06-24T03:16:53.471Z,93.50
2018-06-24T03:19:21.987Z,93.60
2018-06-24T03:21:50.572Z,93.50
2018-06-24T03:24:19.116Z,93.40
2018-06-24T03:26:47.711Z,93.30
2018-06-24T03:29:16.192Z,93.20
2018-06-24T03:31:44.696Z,93.10
2018-06-24T03:34:13.391Z,93.10
2018-06-24T03:36:42.162Z,92.90
2018-06-24T03:39:11.836Z,93.00
2018-06-24T03:41:40.559Z,92.80
2018-06-24T03:44:09.130Z,92.80
2018-06-24T03:46:37.604Z,92.80
2018-06-24T03:49:06.129Z,92.70
2018-06-24T03:51:34.615Z,92.70
2018-06-24T03:54:03.152Z,92.40
2018-06-24T03:56:32.006Z,92.30
2018-06-24T03:59:00.579Z,92.00
2018-06-24T04:01:30.303Z,92.10
2018-06-24T04:03:59.439Z,91.90
2018-06-24T04:06:28.092Z,91.90
2018-06-24T04:08:56.722Z,91.50
2018-06-24T04:11:25.204Z,91.00
2018-06-24T04:13:53.729Z,90.80
2018-06-24T04:16:22.285Z,91.00
2018-06-24T04:18:50.714Z,91.00
2018-06-24T04:21:19.247Z,91.40
2018-06-24T04:23:47.756Z,91.70
2018-06-24T04:26:16.338Z,91.50
2018-06-24T04:28:44.904Z,91.70
2018-06-24T04:31:13.357Z,91.60
2018-06-24T04:33:41.929Z,91.70
2018-06-24T04:36:10.371Z,92.30
2018-06-24T04:38:39.045Z,92.80
2018-06-24T04:41:07.711Z,92.60
2018-06-24T04:43:36.225Z,92.60
2018-06-24T04:46:04.818Z,92.60
2018-06-24T04:48:33.340Z,92.60
2018-06-24T04:51:01.925Z,91.70
2018-06-24T04:53:30.793Z,91.80
2018-06-24T04:55:59.333Z,91.20
2018-06-24T04:58:27.747Z,90.80
2018-06-24T05:00:56.385Z,90.70
2018-06-24T05:03:24.880Z,90.10
2018-06-24T05:05:53.731Z,89.50
2018-06-24T05:08:22.336Z,89.10
2018-06-24T05:10:50.854Z,88.00
2018-06-24T05:13:19.366Z,88.00
2018-06-24T05:18:15.992Z,86.00
2018-06-24T05:20:44.497Z,86.50
2018-06-24T05:23:13.078Z,86.70
2018-06-24T05:25:43.477Z,86.60
2018-06-24T05:28:12.321Z,86.60
2018-06-24T05:30:41.022Z,87.10
2018-06-24T05:33:09.558Z,88.10
2018-06-24T05:35:38.150Z,88.30
2018-06-24T05:38:07.021Z,88.90
2018-06-24T05:40:36.384Z,89.20
2018-06-24T05:43:05.256Z,89.60
2018-06-24T05:45:33.869Z,89.10
2018-06-24T05:48:02.508Z,88.80
2018-06-24T05:50:31.182Z,88.20
2018-06-24T05:52:59.777Z,87.90
2018-06-24T05:55:28.458Z,87.90
2018-06-24T05:57:57.165Z,87.90
2018-06-24T06:00:25.828Z,86.80
2018-06-24T06:02:54.444Z,86.70
2018-06-24T06:05:23.392Z,86.10
2018-06-24T06:07:51.983Z,84.80
2018-06-24T06:10:20.585Z,86.00
2018-06-24T06:12:49.129Z,86.40
2018-06-24T06:15:17.688Z,85.70
2018-06-24T06:17:46.375Z,85.70
2018-06-24T06:20:15.132Z,85.50
2018-06-24T06:22:43.873Z,84.60
2018-06-24T06:25:25.829Z,85.30
2018-06-24T06:27:56.922Z,84.80
2018-06-24T06:30:32.098Z,85.60
2018-06-24T06:33:04.599Z,83.30
2018-06-24T06:35:33.302Z,82.30
2018-06-24T06:38:07.315Z,80.30
2018-06-24T06:40:36.419Z,81.70
2018-06-24T06:43:05.434Z,80.40
2018-06-24T06:45:38.636Z,80.50
2018-06-24T06:48:07.701Z,79.50
2018-06-24T06:50:36.229Z,78.20
2018-06-24T06:53:05.075Z,78.20
2018-06-24T06:55:34.260Z,77.60
2018-06-24T06:58:03.069Z,77.20
2018-06-24T07:00:31.698Z,76.60
2018-06-24T07:03:01.007Z,74.50
2018-06-24T07:05:30.344Z,74.90
2018-06-24T07:07:58.966Z,75.40
2018-06-24T07:10:27.582Z,74.10
2018-06-24T07:12:56.869Z,72.80
2018-06-24T07:15:26.086Z,72.80
2018-06-24T07:17:54.676Z,71.80
2018-06-24T07:20:23.281Z,72.10
2018-06-24T07:22:52.320Z,71.20
2018-06-24T07:25:21.545Z,70.80
2018-06-24T07:27:53.603Z,70.90
2018-06-24T07:30:22.463Z,71.00
2018-06-24T07:32:51.873Z,70.80
2018-06-24T07:35:47.745Z,69.00
2018-06-24T07:38:16.319Z,72.20
2018-06-24T07:40:46.820Z,72.40
2018-06-24T07:43:15.360Z,71.20
2018-06-24T07:45:43.900Z,70.70
2018-06-24T07:48:12.732Z,70.10
2018-06-24T07:50:41.192Z,70.40
2018-06-24T07:53:09.694Z,68.20
2018-06-24T07:55:38.248Z,69.70
2018-06-24T07:58:08.798Z,68.90
2018-06-24T08:00:39.035Z,66.30
2018-06-24T08:03:09.983Z,66.80
2018-06-24T08:05:45.151Z,66.00
2018-06-24T08:08:16.897Z,65.80
2018-06-24T08:10:46.280Z,65.50
2018-06-24T08:13:15.016Z,67.60
2018-06-24T08:15:43.608Z,67.80
2018-06-24T08:18:12.205Z,67.50
2018-06-24T08:20:43.026Z,67.90
2018-06-24T08:23:12.637Z,67.00
2018-06-24T08:25:41.207Z,65.90
2018-06-24T08:28:12.062Z,66.90
2018-06-24T08:30:41.506Z,67.00
2018-06-24T08:33:11.049Z,67.80
2018-06-24T08:35:39.684Z,68.00
2018-06-24T08:38:08.261Z,67.40
2018-06-24T08:40:36.817Z,67.90
2018-06-24T08:43:06.320Z,68.80
2018-06-24T08:45:34.948Z,71.20
2018-06-24T08:48:03.714Z,69.60
2018-06-24T08:50:32.261Z,69.80
2018-06-24T08:53:00.883Z,69.50
2018-06-24T08:55:29.477Z,70.30
2018-06-24T08:57:58.026Z,68.70
2018-06-24T09:00:26.551Z,68.40
2018-06-24T09:02:55.061Z,67.70
2018-06-24T09:05:23.694Z,67.20
2018-06-24T09:07:52.226Z,66.10
2018-06-24T09:10:21.324Z,66.70
2018-06-24T09:12:49.866Z,66.70
2018-06-24T09:15:18.409Z,66.90
2018-06-24T09:17:46.929Z,65.30
2018-06-24T09:20:15.418Z,65.70
2018-06-24T09:22:44.014Z,64.90
2018-06-24T09:25:12.573Z,63.80
2018-06-24T09:27:41.135Z,63.00
2018-06-24T09:30:09.655Z,62.80
2018-06-24T09:32:38.128Z,62.90
2018-06-24T09:35:06.815Z,62.00
2018-06-24T09:37:36.528Z,62.70
2018-06-24T09:40:05.133Z,60.70
2018-06-24T09:42:34.158Z,59.90
2018-06-24T09:45:02.750Z,59.40
2018-06-24T09:47:31.369Z,58.50
2018-06-24T09:49:59.952Z,55.90
2018-06-24T09:54:58.612Z,57.30
2018-06-24T09:57:39.901Z,59.00
2018-06-24T10:00:12.846Z,56.40
2018-06-24T10:02:43.485Z,56.00
2018-06-24T10:05:12.078Z,56.90
2018-06-24T10:07:42.342Z,55.70
2018-06-24T10:10:11.063Z,55.50
2018-06-24T10:12:39.619Z,53.40
2018-06-24T10:15:08.917Z,54.30
2018-06-24T10:17:38.065Z,54.80
2018-06-24T10:20:06.749Z,55.10
2018-06-24T10:22:35.514Z,54.40
2018-06-24T10:25:04.305Z,54.70
2018-06-24T10:27:32.956Z,52.60
2018-06-24T10:30:02.222Z,56.00
2018-06-24T10:32:30.999Z,57.50
2018-06-24T10:34:59.632Z,54.50
2018-06-24T10:37:30.759Z,53.80
2018-06-24T10:40:00.798Z,52.00
2018-06-24T10:42:30.095Z,50.60
2018-06-24T10:44:58.894Z,50.10
2018-06-24T10:47:27.715Z,49.80
2018-06-24T10:49:56.691Z,50.50
2018-06-24T10:52:25.689Z,49.90
2018-06-24T10:54:54.452Z,49.70
2018-06-24T10:57:24.785Z,50.70
2018-06-24T10:59:53.591Z,52.70
2018-06-24T11:02:22.792Z,49.60
2018-06-24T11:04:51.537Z,49.10
2018-06-24T11:07:20.474Z,48.10
2018-06-24T11:09:49.058Z,47.80
2018-06-24T11:12:18.256Z,48.00
2018-06-24T11:14:48.156Z,46.30
2018-06-24T11:17:17.567Z,47.40
2018-06-24T11:19:47.060Z,49.80
2018-06-24T11:22:16.481Z,52.10
2018-06-24T11:24:45.235Z,52.50
2018-06-24T11:27:13.881Z,53.90
2018-06-24T11:29:42.431Z,56.40
2018-06-24T11:32:11.441Z,56.70
2018-06-24T11:34:40.000Z,58.50
2018-06-24T11:37:08.778Z,60.00
2018-06-24T11:39:37.379Z,59.80
2018-06-24T11:42:06.226Z,60.60
2018-06-24T11:44:34.939Z,61.30
2018-06-24T11:47:03.717Z,62.20
2018-06-24T11:49:32.234Z,61.70
2018-06-24T11:52:01.362Z,60.60
2018-06-24T11:54:29.901Z,60.30
2018-06-24T11:56:58.452Z,59.10
2018-06-24T11:59:27.247Z,59.50
2018-06-24T12:01:56.585Z,61.90
2018-06-24T12:04:25.475Z,59.10
2018-06-24T12:06:54.675Z,59.50
2018-06-24T12:09:23.435Z,58.30
2018-06-24T12:11:52.088Z,58.00
2018-06-24T12:14:20.620Z,57.00
2018-06-24T12:16:49.197Z,56.70
2018-06-24T12:19:17.736Z,55.70
2018-06-24T12:21:46.317Z,53.80
2018-06-24T12:24:15.072Z,53.20
2018-06-24T12:26:50.161Z,52.80
2018-06-24T12:29:18.741Z,53.00
2018-06-24T12:31:47.969Z,51.50
2018-06-24T12:34:16.724Z,49.40
2018-06-24T12:36:45.722Z,48.30
2018-06-24T12:39:18.046Z,48.00
2018-06-24T12:41:48.291Z,48.30
2018-06-24T12:44:17.054Z,49.00
2018-06-24T12:46:46.704Z,49.20
2018-06-24T12:49:15.570Z,49.00
2018-06-24T12:51:46.785Z,47.90
2018-06-24T12:54:17.377Z,49.40
2018-06-24T12:56:46.959Z,48.50
2018-06-24T12:59:16.095Z,42.80
2018-06-24T13:01:45.553Z,41.60
2018-06-24T13:04:16.987Z,38.70
2018-06-24T13:06:45.803Z,40.10
2018-06-24T13:09:14.454Z,40.80
2018-06-24T13:11:43.200Z,43.70
2018-06-24T13:14:12.075Z,43.30
2018-06-24T13:16:42.964Z,44.90
2018-06-24T13:19:11.806Z,44.00
2018-06-24T13:21:40.617Z,42.60
2018-06-24T13:24:09.150Z,43.10
2018-06-24T13:26:38.136Z,42.10
2018-06-24T13:29:06.744Z,40.90
2018-06-24T13:31:36.401Z,40.70
2018-06-24T13:34:05.987Z,39.70
2018-06-24T13:36:34.524Z,40.50
2018-06-24T13:39:03.276Z,39.30
2018-06-24T13:41:31.907Z,39.20
2018-06-24T13:44:00.440Z,40.50
2018-06-24T13:46:29.320Z,42.20
2018-06-24T13:48:57.843Z,43.60
2018-06-24T13:51:26.483Z,45.50
2018-06-24T13:53:55.032Z,46.60
2018-06-24T13:56:23.730Z,47.70
2018-06-24T13:58:52.271Z,49.20
2018-06-24T14:01:21.508Z,48.80
2018-06-24T14:03:50.034Z,50.40
2018-06-24T14:06:18.536Z,50.50
2018-06-24T14:08:47.970Z,52.10
2018-06-24T14:11:16.556Z,52.20
2018-06-24T14:13:45.116Z,50.80
2018-06-24T14:16:13.735Z,51.90
2018-06-24T14:18:42.517Z,52.50
2018-06-24T14:21:11.039Z,51.40
2018-06-24T14:23:40.097Z,51.70
2018-06-24T14:26:08.640Z,53.70
2018-06-24T14:28:37.185Z,52.00
2018-06-24T14:31:06.595Z,52.70
2018-06-24T14:36:03.489Z,50.00
2018-06-24T14:38:33.029Z,49.80
2018-06-24T14:41:04.953Z,49.30
2018-06-24T14:43:34.096Z,48.80
2018-06-24T14:46:02.786Z,47.40
2018-06-24T14:48:31.346Z,48.90
2018-06-24T14:51:00.019Z,48.30
2018-06-24T14:53:28.744Z,50.20
2018-06-24T14:55:58.121Z,49.30
2018-06-24T14:58:26.777Z,49.20
2018-06-24T15:00:55.365Z,51.70
2018-06-24T15:03:23.916Z,51.60
2018-06-24T15:05:52.472Z,49.90
2018-06-24T15:08:20.981Z,50.40
2018-06-24T15:10:49.551Z,49.70
2018-06-24T15:13:18.087Z,50.30
2018-06-24T15:15:46.624Z,51.30
2018-06-24T15:18:15.720Z,50.30
2018-06-24T15:20:44.464Z,49.90
2018-06-24T15:23:13.026Z,50.70
2018-06-24T15:25:41.535Z,50.90
2018-06-24T15:28:10.267Z,50.20
2018-06-24T15:30:38.762Z,50.80
2018-06-24T15:33:07.402Z,49.90
2018-06-24T15:35:35.983Z,49.30
2018-06-24T15:38:04.753Z,50.00
2018-06-24T15:40:33.534Z,50.50
2018-06-24T15:43:02.101Z,51.60
2018-06-24T15:45:30.646Z,52.30
2018-06-24T15:47:59.253Z,52.60
2018-06-24T15:50:27.863Z,53.10
2018-06-24T15:52:56.597Z,54.30
2018-06-24T15:55:25.212Z,54.20
2018-06-24T16:00:22.584Z,54.20
2018-06-24T16:02:51.129Z,54.60
2018-06-24T16:05:19.990Z,54.50
2018-06-24T16:07:48.817Z,55.20
2018-06-24T16:10:17.481Z,55.30
2018-06-24T16:12:47.004Z,54.90
2018-06-24T16:15:19.494Z,55.30
2018-06-24T16:17:48.346Z,56.40
2018-06-24T16:20:16.937Z,56.10
2018-06-24T16:22:45.941Z,56.30
2018-06-24T16:25:15.960Z,56.00
2018-06-24T16:27:44.713Z,56.90
2018-06-24T16:30:14.138Z,56.70
2018-06-24T16:32:42.811Z,57.00
2018-06-24T16:35:11.891Z,57.70
2018-06-24T16:37:40.765Z,57.80
2018-06-24T16:40:09.395Z,57.40
2018-06-24T16:42:38.215Z,57.70
2018-06-24T16:45:10.114Z,58.80
2018-06-24T16:47:40.201Z,58.60
2018-06-24T16:50:10.035Z,57.30
2018-06-24T16:52:40.927Z,57.20
2018-06-24T16:55:09.771Z,57.70
2018-06-24T16:57:38.570Z,57.40
2018-06-24T17:00:07.865Z,57.90
2018-06-24T17:02:36.929Z,57.80
2018-06-24T17:05:05.836Z,58.20
2018-06-24T17:07:40.324Z,57.30
2018-06-24T17:10:10.889Z,57.50
2018-06-24T17:15:26.153Z,58.30
2018-06-24T17:17:54.791Z,58.50
2018-06-24T17:20:23.610Z,58.80
2018-06-24T17:22:52.408Z,59.40
2018-06-24T17:25:21.023Z,59.50
2018-06-24T17:27:49.892Z,59.90
2018-06-24T17:30:18.619Z,60.50
2018-06-24T17:32:47.299Z,59.90
2018-06-24T17:35:15.840Z,60.40
2018-06-24T17:37:44.425Z,60.70
2018-06-24T17:40:13.006Z,61.30
2018-06-24T17:42:41.652Z,62.10
2018-06-24T17:45:10.289Z,61.80
2018-06-24T17:50:07.439Z,61.90
2018-06-24T17:52:36.111Z,62.10
2018-06-24T17:55:04.859Z,62.40
2018-06-24T17:57:33.630Z,62.90
2018-06-24T18:00:02.298Z,63.30
2018-06-24T18:02:30.899Z,64.00
2018-06-24T18:05:00.028Z,63.30
2018-06-24T18:07:28.774Z,63.80
2018-06-24T18:09:57.789Z,63.20
2018-06-24T18:12:26.477Z,63.90
2018-06-24T18:14:55.705Z,64.10
2018-06-24T18:17:25.484Z,64.40
2018-06-24T18:19:54.804Z,64.60
2018-06-24T18:22:25.631Z,64.70
2018-06-24T18:25:01.346Z,65.30
2018-06-24T18:27:30.019Z,65.40
2018-06-24T18:29:58.932Z,65.70
2018-06-24T18:32:29.993Z,66.00
2018-06-24T18:34:58.508Z,66.40
2018-06-24T18:37:27.074Z,66.80
2018-06-24T18:39:55.644Z,67.10
2018-06-24T18:42:25.724Z,67.30
2018-06-24T18:44:55.133Z,67.90
2018-06-24T18:47:23.879Z,67.70
2018-06-24T18:49:52.418Z,68.00
2018-06-24T18:52:20.946Z,68.50
2018-06-24T18:54:49.544Z,68.40
2018-06-24T18:57:18.123Z,68.60
2018-06-24T18:59:46.728Z,69.30
2018-06-24T19:02:15.605Z,68.80
2018-06-24T19:04:44.882Z,69.30
2018-06-24T19:07:13.461Z,69.00
2018-06-24T19:09:41.976Z,69.30
2018-06-24T19:14:39.946Z,69.40
2018-06-24T19:17:08.532Z,69.40
2018-06-24T19:19:37.210Z,69.30
2018-06-24T19:22:05.868Z,69.50
2018-06-24T19:24:36.873Z,70.10
2018-06-24T19:27:05.784Z,69.70
2018-06-24T19:29:34.294Z,69.90
2018-06-24T19:32:02.816Z,70.00
2018-06-24T19:34:31.395Z,70.50
2018-06-24T19:36:59.942Z,70.40
2018-06-24T19:39:29.595Z,70.70
2018-06-24T19:41:58.131Z,70.60
2018-06-24T19:44:26.879Z,70.90
2018-06-24T19:46:55.498Z,71.00
2018-06-24T19:49:24.248Z,71.20
2018-06-24T19:51:53.327Z,71.30
2018-06-24T19:54:22.319Z,71.60
2018-06-24T19:56:50.993Z,71.90
2018-06-24T19:59:23.853Z,72.00
2018-06-24T20:01:52.606Z,72.30
2018-06-24T20:04:21.176Z,72.50
2018-06-24T20:06:49.713Z,72.70
2018-06-24T20:09:18.268Z,73.10
2018-06-24T20:11:47.209Z,73.20
2018-06-24T20:14:16.220Z,74.00
2018-06-24T20:19:13.256Z,74.10
2018-06-24T20:21:41.829Z,74.20
2018-06-24T20:24:10.670Z,74.30
2018-06-24T20:26:39.299Z,74.40
2018-06-24T20:29:08.160Z,74.60
2018-06-24T20:31:36.799Z,74.60
2018-06-24T20:34:06.518Z,74.60
2018-06-24T20:36:35.052Z,74.90
2018-06-24T20:39:05.751Z,74.80
2018-06-24T20:41:34.326Z,75.40
2018-06-24T20:44:03.677Z,75.50
2018-06-24T20:46:33.972Z,75.10
2018-06-24T20:49:04.475Z,75.40
2018-06-24T20:51:34.153Z,75.70
2018-06-24T20:56:31.886Z,75.60
2018-06-24T20:59:00.537Z,75.80
2018-06-24T21:01:29.284Z,75.90
2018-06-24T21:03:57.817Z,75.90
2018-06-24T21:06:26.689Z,76.20
2018-06-24T21:08:55.282Z,76.50
2018-06-24T21:11:23.851Z,77.30
2018-06-24T21:13:52.412Z,77.20
2018-06-24T21:16:27.330Z,77.50
2018-06-24T21:18:56.170Z,77.70
2018-06-24T21:21:24.849Z,77.90
2018-06-24T21:23:53.516Z,77.90
2018-06-24T21:26:22.728Z,78.00
2018-06-24T21:28:54.665Z,78.00
2018-06-24T21:31:25.709Z,78.30
2018-06-24T21:33:56.101Z,78.30
2018-06-24T21:36:27.321Z,78.40
2018-06-24T21:38:56.646Z,78.50
2018-06-24T21:41:25.920Z,78.60
2018-06-24T21:43:54.491Z,78.80
2018-06-24T21:46:23.172Z,79.10
2018-06-24T21:48:51.672Z,79.30
2018-06-24T21:51:20.225Z,78.30
2018-06-24T21:53:48.721Z,78.80
2018-06-24T21:56:17.339Z,78.50
2018-06-24T21:58:45.932Z,78.90
2018-06-24T22:01:15.172Z,78.70
2018-06-24T22:03:44.043Z,78.70
2018-06-24T22:06:12.599Z,78.30
2018-06-24T22:08:45.121Z,78.20
2018-06-24T22:11:14.484Z,78.90
2018-06-24T22:13:43.148Z,78.20
2018-06-24T22:16:12.592Z,77.90
2018-06-24T22:18:41.336Z,77.90
2018-06-24T22:21:16.333Z,78.00
2018-06-24T22:23:44.845Z,77.70
2018-06-24T22:26:13.353Z,78.70
2018-06-24T22:28:42.111Z,78.40
2018-06-24T22:31:11.060Z,78.60
2018-06-24T22:33:39.778Z,78.50
2018-06-24T22:36:08.413Z,78.80
2018-06-24T22:38:37.480Z,79.10
2018-06-24T22:41:06.363Z,79.30
2018-06-24T22:43:34.916Z,78.90
2018-06-24T22:46:03.581Z,79.30
2018-06-24T22:48:32.234Z,79.50
2018-06-24T22:51:00.795Z,79.40
2018-06-24T22:53:30.070Z,79.40
2018-06-24T22:55:58.606Z,79.40
2018-06-24T22:58:27.168Z,79.30
2018-06-24T23:00:55.767Z,79.50
2018-06-24T23:03:24.315Z,79.50
2018-06-24T23:05:52.907Z,80.10
2018-06-24T23:08:21.392Z,79.90
2018-06-24T23:10:49.917Z,80.10
2018-06-24T23:13:18.428Z,80.00
2018-06-24T23:15:47.005Z,80.60
2018-06-24T23:18:15.624Z,80.30
2018-06-24T23:20:44.156Z,80.50
2018-06-24T23:23:12.679Z,80.70
2018-06-24T23:25:41.188Z,80.70
2018-06-24T23:28:09.903Z,80.70
2018-06-24T23:30:38.432Z,80.90
2018-06-24T23:33:07.956Z,80.80
2018-06-24T23:35:36.478Z,80.80
2018-06-24T23:38:05.767Z,81.10
2018-06-24T23:40:34.369Z,81.30
2018-06-24T23:43:02.904Z,81.50
2018-06-24T23:45:31.492Z,81.00
2018-06-24T23:48:00.096Z,81.30
2018-06-24T23:50:28.639Z,81.50
2018-06-24T23:52:57.163Z,81.90
2018-06-24T23:55:25.738Z,82.20
2018-06-24T23:57:54.232Z,82.60
